sensor_id;sensor_type;location;lat;lon;timestamp;pressure;altitude;pressure_sealevel;temperature;humidity
61939;BME280;47897;50.322;18.892;2022-07-23T00:00:57;98374.14;;;19.60;75.55
61939;BME280;47897;50.322;18.892;2022-07-23T00:03:24;98373.30;;;19.57;75.76
61939;BME280;47897;50.322;18.892;2022-07-23T00:05:51;98379.16;;;19.52;76.01
61939;BME280;47897;50.322;18.892;2022-07-23T00:08:18;98376.40;;;19.46;76.19
61939;BME280;47897;50.322;18.892;2022-07-23T00:10:45;98374.76;;;19.44;76.18
61939;BME280;47897;50.322;18.892;2022-07-23T00:13:12;98377.29;;;19.43;76.37
61939;BME280;47897;50.322;18.892;2022-07-23T00:15:38;98381.35;;;19.39;76.31
61939;BME280;47897;50.322;18.892;2022-07-23T00:18:05;98380.04;;;19.36;76.20
61939;BME280;47897;50.322;18.892;2022-07-23T00:20:32;98378.61;;;19.38;76.17
61939;BME280;47897;50.322;18.892;2022-07-23T00:22:59;98377.30;;;19.39;76.35
61939;BME280;47897;50.322;18.892;2022-07-23T00:25:26;98379.40;;;19.32;76.47
61939;BME280;47897;50.322;18.892;2022-07-23T00:27:53;98382.66;;;19.24;76.70
61939;BME280;47897;50.322;18.892;2022-07-23T00:30:20;98379.34;;;19.11;77.16
61939;BME280;47897;50.322;18.892;2022-07-23T00:35:13;98382.21;;;18.91;77.82
61939;BME280;47897;50.322;18.892;2022-07-23T00:37:40;98379.52;;;18.85;78.13
61939;BME280;47897;50.322;18.892;2022-07-23T00:40:08;98380.84;;;18.83;78.19
61939;BME280;47897;50.322;18.892;2022-07-23T00:42:35;98381.61;;;18.85;78.21
61939;BME280;47897;50.322;18.892;2022-07-23T00:45:02;98376.11;;;18.89;78.11
61939;BME280;47897;50.322;18.892;2022-07-23T00:47:29;98379.55;;;18.94;77.92
61939;BME280;47897;50.322;18.892;2022-07-23T00:49:55;98380.73;;;18.99;77.99
61939;BME280;47897;50.322;18.892;2022-07-23T00:52:22;98383.88;;;19.00;78.02
61939;BME280;47897;50.322;18.892;2022-07-23T00:54:49;98382.02;;;19.00;78.07
61939;BME280;47897;50.322;18.892;2022-07-23T00:57:16;98384.42;;;19.01;78.09
61939;BME280;47897;50.322;18.892;2022-07-23T00:59:43;98384.98;;;18.94;78.36
61939;BME280;47897;50.322;18.892;2022-07-23T01:02:10;98380.94;;;18.83;78.53
61939;BME280;47897;50.322;18.892;2022-07-23T01:04:37;98376.46;;;18.77;78.70
61939;BME280;47897;50.322;18.892;2022-07-23T01:07:04;98374.10;;;18.77;78.45
61939;BME280;47897;50.322;18.892;2022-07-23T01:09:31;98373.55;;;18.81;78.62
61939;BME280;47897;50.322;18.892;2022-07-23T01:11:58;98374.10;;;18.82;78.64
61939;BME280;47897;50.322;18.892;2022-07-23T01:14:25;98375.48;;;18.81;78.53
61939;BME280;47897;50.322;18.892;2022-07-23T01:16:53;98375.88;;;18.74;78.98
61939;BME280;47897;50.322;18.892;2022-07-23T01:19:19;98374.48;;;18.67;79.09
61939;BME280;47897;50.322;18.892;2022-07-23T01:21:47;98370.95;;;18.66;78.92
61939;BME280;47897;50.322;18.892;2022-07-23T01:24:14;98366.61;;;18.69;78.81
61939;BME280;47897;50.322;18.892;2022-07-23T01:26:42;98368.31;;;18.73;78.85
61939;BME280;47897;50.322;18.892;2022-07-23T01:29:10;98362.73;;;18.74;78.93
61939;BME280;47897;50.322;18.892;2022-07-23T01:31:36;98366.02;;;18.70;79.03
61939;BME280;47897;50.322;18.892;2022-07-23T01:34:03;98363.88;;;18.64;79.20
61939;BME280;47897;50.322;18.892;2022-07-23T01:36:31;98358.98;;;18.62;79.31
61939;BME280;47897;50.322;18.892;2022-07-23T01:38:57;98358.70;;;18.64;78.92
61939;BME280;47897;50.322;18.892;2022-07-23T01:41:24;98359.88;;;18.65;79.09
61939;BME280;47897;50.322;18.892;2022-07-23T01:43:51;98361.86;;;18.60;79.30
61939;BME280;47897;50.322;18.892;2022-07-23T01:46:18;98367.41;;;18.49;79.54
61939;BME280;47897;50.322;18.892;2022-07-23T01:48:45;98365.18;;;18.36;80.07
61939;BME280;47897;50.322;18.892;2022-07-23T01:51:11;98371.05;;;18.25;80.57
61939;BME280;47897;50.322;18.892;2022-07-23T01:53:38;98370.52;;;18.15;80.42
61939;BME280;47897;50.322;18.892;2022-07-23T01:56:05;98362.65;;;18.13;80.54
61939;BME280;47897;50.322;18.892;2022-07-23T01:58:32;98362.45;;;18.15;80.58
61939;BME280;47897;50.322;18.892;2022-07-23T02:00:59;98359.11;;;18.13;80.62
61939;BME280;47897;50.322;18.892;2022-07-23T02:03:26;98364.10;;;18.13;80.68
61939;BME280;47897;50.322;18.892;2022-07-23T02:05:53;98369.13;;;18.16;80.59
61939;BME280;47897;50.322;18.892;2022-07-23T02:08:20;98373.66;;;18.19;80.25
61939;BME280;47897;50.322;18.892;2022-07-23T02:10:47;98373.09;;;18.23;80.35
61939;BME280;47897;50.322;18.892;2022-07-23T02:13:14;98367.67;;;18.24;80.52
61939;BME280;47897;50.322;18.892;2022-07-23T02:15:41;98370.41;;;18.16;80.68
61939;BME280;47897;50.322;18.892;2022-07-23T02:18:08;98369.23;;;18.11;80.93
61939;BME280;47897;50.322;18.892;2022-07-23T02:20:35;98373.24;;;18.08;81.20
61939;BME280;47897;50.322;18.892;2022-07-23T02:23:05;98373.95;;;18.04;81.19
61939;BME280;47897;50.322;18.892;2022-07-23T02:25:33;98371.02;;;18.06;80.95
61939;BME280;47897;50.322;18.892;2022-07-23T02:28:00;98368.33;;;18.07;81.01
61939;BME280;47897;50.322;18.892;2022-07-23T02:30:27;98367.00;;;18.09;81.14
61939;BME280;47897;50.322;18.892;2022-07-23T02:32:53;98364.64;;;18.02;81.48
61939;BME280;47897;50.322;18.892;2022-07-23T02:35:20;98357.48;;;17.92;81.72
61939;BME280;47897;50.322;18.892;2022-07-23T02:37:47;98355.66;;;17.86;81.73
61939;BME280;47897;50.322;18.892;2022-07-23T02:40:14;98356.23;;;17.82;81.86
61939;BME280;47897;50.322;18.892;2022-07-23T02:42:41;98352.33;;;17.78;81.96
61939;BME280;47897;50.322;18.892;2022-07-23T02:45:08;98357.23;;;17.75;82.21
61939;BME280;47897;50.322;18.892;2022-07-23T02:47:34;98357.04;;;17.70;82.38
61939;BME280;47897;50.322;18.892;2022-07-23T02:50:01;98353.50;;;17.69;82.37
61939;BME280;47897;50.322;18.892;2022-07-23T02:52:30;98349.96;;;17.65;82.42
61939;BME280;47897;50.322;18.892;2022-07-23T02:54:56;98350.48;;;17.58;82.79
61939;BME280;47897;50.322;18.892;2022-07-23T02:57:23;98351.90;;;17.51;82.80
61939;BME280;47897;50.322;18.892;2022-07-23T02:59:50;98347.16;;;17.49;82.80
61939;BME280;47897;50.322;18.892;2022-07-23T03:02:16;98342.67;;;17.53;82.62
61939;BME280;47897;50.322;18.892;2022-07-23T03:04:43;98339.70;;;17.56;82.55
61939;BME280;47897;50.322;18.892;2022-07-23T03:07:10;98337.61;;;17.61;82.62
61939;BME280;47897;50.322;18.892;2022-07-23T03:09:38;98344.33;;;17.63;82.61
61939;BME280;47897;50.322;18.892;2022-07-23T03:12:04;98350.05;;;17.64;82.66
61939;BME280;47897;50.322;18.892;2022-07-23T03:14:31;98349.62;;;17.61;82.83
61939;BME280;47897;50.322;18.892;2022-07-23T03:16:58;98347.57;;;17.58;82.94
61939;BME280;47897;50.322;18.892;2022-07-23T03:19:26;98349.15;;;17.56;83.02
61939;BME280;47897;50.322;18.892;2022-07-23T03:21:53;98348.41;;;17.56;83.15
61939;BME280;47897;50.322;18.892;2022-07-23T03:24:19;98349.68;;;17.53;83.45
61939;BME280;47897;50.322;18.892;2022-07-23T03:26:46;98355.52;;;17.47;83.68
61939;BME280;47897;50.322;18.892;2022-07-23T03:29:13;98357.55;;;17.44;83.82
61939;BME280;47897;50.322;18.892;2022-07-23T03:31:40;98355.48;;;17.43;83.97
61939;BME280;47897;50.322;18.892;2022-07-23T03:34:06;98352.86;;;17.41;84.15
61939;BME280;47897;50.322;18.892;2022-07-23T03:36:33;98356.80;;;17.42;84.18
61939;BME280;47897;50.322;18.892;2022-07-23T03:39:00;98355.61;;;17.46;84.12
61939;BME280;47897;50.322;18.892;2022-07-23T03:41:27;98354.63;;;17.51;83.89
61939;BME280;47897;50.322;18.892;2022-07-23T03:43:53;98349.88;;;17.56;83.88
61939;BME280;47897;50.322;18.892;2022-07-23T03:46:20;98356.25;;;17.61;84.08
61939;BME280;47897;50.322;18.892;2022-07-23T03:48:47;98364.09;;;17.60;84.24
61939;BME280;47897;50.322;18.892;2022-07-23T03:51:14;98364.58;;;17.58;84.52
61939;BME280;47897;50.322;18.892;2022-07-23T03:53:40;98363.47;;;17.57;84.51
61939;BME280;47897;50.322;18.892;2022-07-23T03:56:07;98357.80;;;17.58;84.50
61939;BME280;47897;50.322;18.892;2022-07-23T03:58:34;98356.27;;;17.63;84.25
61939;BME280;47897;50.322;18.892;2022-07-23T04:01:00;98359.90;;;17.68;84.95
61939;BME280;47897;50.322;18.892;2022-07-23T04:03:27;98359.30;;;17.70;84.99
61939;BME280;47897;50.322;18.892;2022-07-23T04:05:54;98356.90;;;17.75;84.75
61939;BME280;47897;50.322;18.892;2022-07-23T04:08:21;98354.05;;;17.81;84.32
61939;BME280;47897;50.322;18.892;2022-07-23T04:10:49;98356.52;;;17.88;84.44
61939;BME280;47897;50.322;18.892;2022-07-23T04:13:16;98358.23;;;17.95;85.50
61939;BME280;47897;50.322;18.892;2022-07-23T04:15:42;98364.69;;;17.99;85.44
61939;BME280;47897;50.322;18.892;2022-07-23T04:18:09;98362.42;;;18.04;85.64
61939;BME280;47897;50.322;18.892;2022-07-23T04:20:36;98359.91;;;18.08;85.55
61939;BME280;47897;50.322;18.892;2022-07-23T04:23:03;98359.88;;;18.14;85.22
61939;BME280;47897;50.322;18.892;2022-07-23T04:25:30;98357.73;;;18.21;85.13
61939;BME280;47897;50.322;18.892;2022-07-23T04:27:57;98358.86;;;18.29;85.11
61939;BME280;47897;50.322;18.892;2022-07-23T04:30:23;98360.27;;;18.36;85.24
61939;BME280;47897;50.322;18.892;2022-07-23T04:32:50;98356.38;;;18.44;85.07
61939;BME280;47897;50.322;18.892;2022-07-23T04:35:17;98355.42;;;18.51;84.52
61939;BME280;47897;50.322;18.892;2022-07-23T04:37:43;98352.39;;;18.57;84.00
61939;BME280;47897;50.322;18.892;2022-07-23T04:40:11;98354.27;;;18.63;83.50
61939;BME280;47897;50.322;18.892;2022-07-23T04:42:38;98358.13;;;18.70;83.15
61939;BME280;47897;50.322;18.892;2022-07-23T04:45:05;98350.96;;;18.76;82.91
61939;BME280;47897;50.322;18.892;2022-07-23T04:47:32;98355.70;;;18.85;82.70
61939;BME280;47897;50.322;18.892;2022-07-23T04:49:58;98352.93;;;18.93;82.27
61939;BME280;47897;50.322;18.892;2022-07-23T04:52:25;98354.61;;;19.00;81.70
61939;BME280;47897;50.322;18.892;2022-07-23T04:54:52;98355.39;;;19.09;81.00
61939;BME280;47897;50.322;18.892;2022-07-23T04:57:19;98352.70;;;19.17;80.73
61939;BME280;47897;50.322;18.892;2022-07-23T04:59:46;98351.05;;;19.24;80.29
61939;BME280;47897;50.322;18.892;2022-07-23T05:02:12;98349.68;;;19.30;80.11
61939;BME280;47897;50.322;18.892;2022-07-23T05:04:39;98349.20;;;19.38;80.51
61939;BME280;47897;50.322;18.892;2022-07-23T05:07:06;98349.69;;;19.47;81.03
61939;BME280;47897;50.322;18.892;2022-07-23T05:09:32;98351.41;;;19.56;80.81
61939;BME280;47897;50.322;18.892;2022-07-23T05:12:01;98352.58;;;19.65;80.92
61939;BME280;47897;50.322;18.892;2022-07-23T05:14:27;98354.58;;;19.72;80.65
61939;BME280;47897;50.322;18.892;2022-07-23T05:16:54;98354.63;;;19.79;80.09
61939;BME280;47897;50.322;18.892;2022-07-23T05:19:21;98351.47;;;19.86;79.29
61939;BME280;47897;50.322;18.892;2022-07-23T05:21:48;98357.17;;;19.94;79.64
61939;BME280;47897;50.322;18.892;2022-07-23T05:24:15;98356.16;;;20.01;79.98
61939;BME280;47897;50.322;18.892;2022-07-23T05:26:42;98356.37;;;20.08;79.08
61939;BME280;47897;50.322;18.892;2022-07-23T05:29:09;98354.77;;;20.14;78.87
61939;BME280;47897;50.322;18.892;2022-07-23T05:31:35;98349.94;;;20.18;78.58
61939;BME280;47897;50.322;18.892;2022-07-23T05:34:02;98348.04;;;20.23;77.92
61939;BME280;47897;50.322;18.892;2022-07-23T05:36:30;98348.77;;;20.29;77.70
61939;BME280;47897;50.322;18.892;2022-07-23T05:38:57;98351.95;;;20.33;77.24
61939;BME280;47897;50.322;18.892;2022-07-23T05:41:24;98352.95;;;20.37;77.02
61939;BME280;47897;50.322;18.892;2022-07-23T05:43:51;98351.12;;;20.42;76.86
61939;BME280;47897;50.322;18.892;2022-07-23T05:46:18;98344.42;;;20.48;76.18
61939;BME280;47897;50.322;18.892;2022-07-23T05:48:45;98342.96;;;20.54;75.57
61939;BME280;47897;50.322;18.892;2022-07-23T05:51:33;98340.10;;;20.60;75.13
61939;BME280;47897;50.322;18.892;2022-07-23T05:54:00;98334.27;;;20.66;74.25
61939;BME280;47897;50.322;18.892;2022-07-23T05:56:27;98328.52;;;20.70;73.97
61939;BME280;47897;50.322;18.892;2022-07-23T05:58:53;98326.67;;;20.76;73.68
61939;BME280;47897;50.322;18.892;2022-07-23T06:01:20;98320.08;;;20.82;73.49
61939;BME280;47897;50.322;18.892;2022-07-23T06:03:47;98320.47;;;20.90;73.13
61939;BME280;47897;50.322;18.892;2022-07-23T06:06:14;98314.76;;;20.99;72.65
61939;BME280;47897;50.322;18.892;2022-07-23T06:08:40;98312.23;;;21.10;72.21
61939;BME280;47897;50.322;18.892;2022-07-23T06:11:08;98306.38;;;21.20;72.10
61939;BME280;47897;50.322;18.892;2022-07-23T06:13:35;98302.12;;;21.32;72.04
61939;BME280;47897;50.322;18.892;2022-07-23T06:16:02;98298.35;;;21.45;71.47
61939;BME280;47897;50.322;18.892;2022-07-23T06:18:28;98299.32;;;21.55;71.11
61939;BME280;47897;50.322;18.892;2022-07-23T06:20:55;98299.66;;;21.66;70.74
61939;BME280;47897;50.322;18.892;2022-07-23T06:23:22;98301.04;;;21.80;70.01
61939;BME280;47897;50.322;18.892;2022-07-23T06:25:48;98296.83;;;21.91;69.12
61939;BME280;47897;50.322;18.892;2022-07-23T06:28:15;98297.52;;;22.03;68.25
61939;BME280;47897;50.322;18.892;2022-07-23T06:30:42;98297.11;;;22.16;67.66
61939;BME280;47897;50.322;18.892;2022-07-23T06:33:09;98299.80;;;22.26;67.62
61939;BME280;47897;50.322;18.892;2022-07-23T06:35:36;98301.94;;;22.37;67.57
61939;BME280;47897;50.322;18.892;2022-07-23T06:38:03;98307.61;;;22.49;66.97
61939;BME280;47897;50.322;18.892;2022-07-23T06:40:29;98305.41;;;22.63;66.54
61939;BME280;47897;50.322;18.892;2022-07-23T06:42:56;98306.37;;;22.76;66.24
61939;BME280;47897;50.322;18.892;2022-07-23T06:45:23;98306.20;;;22.84;66.10
61939;BME280;47897;50.322;18.892;2022-07-23T06:47:50;98310.50;;;22.91;65.85
61939;BME280;47897;50.322;18.892;2022-07-23T06:50:16;98305.92;;;23.02;66.15
61939;BME280;47897;50.322;18.892;2022-07-23T06:52:43;98306.13;;;23.13;66.14
61939;BME280;47897;50.322;18.892;2022-07-23T06:55:10;98310.41;;;23.24;66.20
61939;BME280;47897;50.322;18.892;2022-07-23T06:57:37;98310.23;;;23.36;65.47
61939;BME280;47897;50.322;18.892;2022-07-23T07:00:04;98317.78;;;23.48;65.21
61939;BME280;47897;50.322;18.892;2022-07-23T07:02:31;98316.85;;;23.63;64.85
61939;BME280;47897;50.322;18.892;2022-07-23T07:04:58;98310.34;;;23.77;64.00
61939;BME280;47897;50.322;18.892;2022-07-23T07:07:25;98301.23;;;23.88;64.34
61939;BME280;47897;50.322;18.892;2022-07-23T07:09:52;98301.55;;;24.01;64.28
61939;BME280;47897;50.322;18.892;2022-07-23T07:12:18;98297.27;;;24.14;63.51
61939;BME280;47897;50.322;18.892;2022-07-23T07:14:45;98298.59;;;24.27;63.79
61939;BME280;47897;50.322;18.892;2022-07-23T07:17:13;98302.38;;;24.41;63.36
61939;BME280;47897;50.322;18.892;2022-07-23T07:19:39;98312.47;;;24.52;62.55
61939;BME280;47897;50.322;18.892;2022-07-23T07:22:06;98312.30;;;24.62;62.11
61939;BME280;47897;50.322;18.892;2022-07-23T07:24:33;98321.80;;;24.75;62.45
61939;BME280;47897;50.322;18.892;2022-07-23T07:26:59;98319.23;;;24.88;63.01
61939;BME280;47897;50.322;18.892;2022-07-23T07:29:26;98307.71;;;25.03;61.95
61939;BME280;47897;50.322;18.892;2022-07-23T07:31:54;98302.46;;;25.17;60.75
61939;BME280;47897;50.322;18.892;2022-07-23T07:34:21;98309.21;;;25.32;60.21
61939;BME280;47897;50.322;18.892;2022-07-23T07:36:48;98315.27;;;25.47;58.99
61939;BME280;47897;50.322;18.892;2022-07-23T07:39:14;98320.78;;;25.64;58.48
61939;BME280;47897;50.322;18.892;2022-07-23T07:41:41;98321.98;;;25.81;57.63
61939;BME280;47897;50.322;18.892;2022-07-23T07:44:08;98329.87;;;25.96;56.43
61939;BME280;47897;50.322;18.892;2022-07-23T07:46:35;98328.80;;;26.10;56.33
61939;BME280;47897;50.322;18.892;2022-07-23T07:49:01;98327.93;;;26.28;56.19
61939;BME280;47897;50.322;18.892;2022-07-23T07:51:28;98324.63;;;26.42;54.98
61939;BME280;47897;50.322;18.892;2022-07-23T07:53:55;98325.54;;;26.53;54.12
61939;BME280;47897;50.322;18.892;2022-07-23T07:56:22;98327.40;;;26.67;53.36
61939;BME280;47897;50.322;18.892;2022-07-23T07:58:49;98330.42;;;26.79;53.46
61939;BME280;47897;50.322;18.892;2022-07-23T08:01:16;98331.11;;;26.92;53.46
61939;BME280;47897;50.322;18.892;2022-07-23T08:03:43;98326.45;;;27.05;53.22
61939;BME280;47897;50.322;18.892;2022-07-23T08:06:10;98319.08;;;27.18;52.89
61939;BME280;47897;50.322;18.892;2022-07-23T08:08:37;98319.33;;;27.38;52.91
61939;BME280;47897;50.322;18.892;2022-07-23T08:11:04;98314.81;;;27.53;51.96
61939;BME280;47897;50.322;18.892;2022-07-23T08:13:31;98309.60;;;27.63;51.06
61939;BME280;47897;50.322;18.892;2022-07-23T08:15:58;98302.08;;;27.68;51.19
61939;BME280;47897;50.322;18.892;2022-07-23T08:18:25;98294.69;;;27.77;50.96
61939;BME280;47897;50.322;18.892;2022-07-23T08:20:52;98289.79;;;28.01;50.63
61939;BME280;47897;50.322;18.892;2022-07-23T08:23:19;98288.39;;;28.32;49.42
61939;BME280;47897;50.322;18.892;2022-07-23T08:25:46;98287.94;;;28.65;48.32
61939;BME280;47897;50.322;18.892;2022-07-23T08:28:14;98288.75;;;28.93;47.31
61939;BME280;47897;50.322;18.892;2022-07-23T08:30:42;98289.98;;;29.18;46.48
61939;BME280;47897;50.322;18.892;2022-07-23T08:33:10;98297.08;;;29.45;46.42
61939;BME280;47897;50.322;18.892;2022-07-23T08:35:43;98296.14;;;29.67;46.29
61939;BME280;47897;50.322;18.892;2022-07-23T08:38:13;98295.67;;;29.90;44.85
61939;BME280;47897;50.322;18.892;2022-07-23T08:40:44;98297.70;;;30.09;43.32
61939;BME280;47897;50.322;18.892;2022-07-23T08:43:13;98303.95;;;30.25;42.97
61939;BME280;47897;50.322;18.892;2022-07-23T08:45:42;98299.64;;;30.38;42.35
61939;BME280;47897;50.322;18.892;2022-07-23T08:48:13;98296.83;;;30.45;41.45
61939;BME280;47897;50.322;18.892;2022-07-23T08:50:44;98298.86;;;30.59;40.90
61939;BME280;47897;50.322;18.892;2022-07-23T08:53:11;98300.79;;;30.75;40.48
61939;BME280;47897;50.322;18.892;2022-07-23T08:55:38;98301.91;;;30.91;40.08
61939;BME280;47897;50.322;18.892;2022-07-23T08:58:08;98307.00;;;31.00;39.27
61939;BME280;47897;50.322;18.892;2022-07-23T09:00:37;98305.00;;;31.07;39.64
61939;BME280;47897;50.322;18.892;2022-07-23T09:03:04;98303.54;;;31.21;39.00
61939;BME280;47897;50.322;18.892;2022-07-23T09:05:31;98301.98;;;31.34;38.52
61939;BME280;47897;50.322;18.892;2022-07-23T09:10:36;98297.17;;;31.52;37.93
61939;BME280;47897;50.322;18.892;2022-07-23T09:13:46;98301.95;;;31.52;38.07
61939;BME280;47897;50.322;18.892;2022-07-23T09:18:36;98303.57;;;31.85;37.48
61939;BME280;47897;50.322;18.892;2022-07-23T09:24:03;98304.17;;;32.08;35.06
61939;BME280;47897;50.322;18.892;2022-07-23T09:29:40;98309.72;;;32.09;34.51
61939;BME280;47897;50.322;18.892;2022-07-23T09:31:48;98308.25;;;32.20;34.39
61939;BME280;47897;50.322;18.892;2022-07-23T09:34:23;98309.09;;;32.37;34.69
61939;BME280;47897;50.322;18.892;2022-07-23T09:36:51;98309.72;;;32.47;33.74
61939;BME280;47897;50.322;18.892;2022-07-23T09:39:25;98308.08;;;32.40;34.64
61939;BME280;47897;50.322;18.892;2022-07-23T09:41:52;98309.46;;;32.55;34.66
61939;BME280;47897;50.322;18.892;2022-07-23T09:44:19;98308.63;;;32.70;34.46
61939;BME280;47897;50.322;18.892;2022-07-23T09:46:51;98307.34;;;32.76;31.88
61939;BME280;47897;50.322;18.892;2022-07-23T09:49:24;98304.52;;;32.57;31.96
61939;BME280;47897;50.322;18.892;2022-07-23T09:51:53;98304.75;;;32.46;33.10
61939;BME280;47897;50.322;18.892;2022-07-23T09:54:22;98303.94;;;32.37;31.93
61939;BME280;47897;50.322;18.892;2022-07-23T09:56:49;98305.92;;;32.15;31.96
61939;BME280;47897;50.322;18.892;2022-07-23T09:59:17;98295.20;;;32.17;33.33
61939;BME280;47897;50.322;18.892;2022-07-23T10:01:45;98294.98;;;32.35;33.29
61939;BME280;47897;50.322;18.892;2022-07-23T10:04:12;98295.39;;;32.46;33.29
61939;BME280;47897;50.322;18.892;2022-07-23T10:06:39;98288.41;;;32.53;32.73
61939;BME280;47897;50.322;18.892;2022-07-23T10:09:10;98288.07;;;32.50;33.67
61939;BME280;47897;50.322;18.892;2022-07-23T10:11:38;98286.61;;;32.64;33.62
61939;BME280;47897;50.322;18.892;2022-07-23T10:14:05;98288.11;;;32.83;34.03
61939;BME280;47897;50.322;18.892;2022-07-23T10:16:33;98284.08;;;32.99;33.29
61939;BME280;47897;50.322;18.892;2022-07-23T10:19:00;98284.09;;;33.13;32.84
61939;BME280;47897;50.322;18.892;2022-07-23T10:21:30;98282.23;;;33.23;31.84
61939;BME280;47897;50.322;18.892;2022-07-23T10:24:08;98279.80;;;33.26;32.13
61939;BME280;47897;50.322;18.892;2022-07-23T10:32:07;98281.17;;;33.35;31.23
61939;BME280;47897;50.322;18.892;2022-07-23T10:34:43;98278.73;;;33.25;31.22
61939;BME280;47897;50.322;18.892;2022-07-23T10:37:16;98276.30;;;33.16;31.30
61939;BME280;47897;50.322;18.892;2022-07-23T10:42:36;98271.03;;;33.12;31.03
61939;BME280;47897;50.322;18.892;2022-07-23T10:45:21;98269.32;;;33.20;31.96
61939;BME280;47897;50.322;18.892;2022-07-23T10:47:49;98264.05;;;33.40;31.44
61939;BME280;47897;50.322;18.892;2022-07-23T10:50:24;98263.84;;;33.51;31.16
61939;BME280;47897;50.322;18.892;2022-07-23T10:55:39;98261.64;;;33.69;30.17
61939;BME280;47897;50.322;18.892;2022-07-23T10:58:06;98259.50;;;33.86;30.75
61939;BME280;47897;50.322;18.892;2022-07-23T11:00:34;98259.23;;;34.12;30.20
61939;BME280;47897;50.322;18.892;2022-07-23T11:03:02;98261.98;;;34.35;29.18
61939;BME280;47897;50.322;18.892;2022-07-23T11:05:40;98257.76;;;34.23;28.13
61939;BME280;47897;50.322;18.892;2022-07-23T11:10:42;98250.20;;;33.93;27.99
61939;BME280;47897;50.322;18.892;2022-07-23T11:24:15;98226.90;;;33.31;29.54
61939;BME280;47897;50.322;18.892;2022-07-23T11:29:52;98231.62;;;33.37;30.59
61939;BME280;47897;50.322;18.892;2022-07-23T11:32:07;98234.60;;;33.44;29.50
61939;BME280;47897;50.322;18.892;2022-07-23T11:34:44;98233.96;;;33.28;29.40
61939;BME280;47897;50.322;18.892;2022-07-23T11:37:33;98230.18;;;33.18;30.62
61939;BME280;47897;50.322;18.892;2022-07-23T11:40:11;98223.50;;;33.29;29.93
61939;BME280;47897;50.322;18.892;2022-07-23T11:42:38;98221.63;;;33.53;30.54
61939;BME280;47897;50.322;18.892;2022-07-23T11:45:06;98220.40;;;33.86;30.57
61939;BME280;47897;50.322;18.892;2022-07-23T11:47:34;98213.67;;;34.06;30.20
61939;BME280;47897;50.322;18.892;2022-07-23T11:50:03;98211.20;;;34.29;29.83
61939;BME280;47897;50.322;18.892;2022-07-23T11:52:30;98211.70;;;34.33;28.60
61939;BME280;47897;50.322;18.892;2022-07-23T11:55:02;98208.48;;;34.34;28.50
61939;BME280;47897;50.322;18.892;2022-07-23T11:57:33;98200.05;;;34.38;29.88
61939;BME280;47897;50.322;18.892;2022-07-23T12:00:03;98192.77;;;34.57;30.32
61939;BME280;47897;50.322;18.892;2022-07-23T12:02:31;98197.14;;;34.83;30.21
61939;BME280;47897;50.322;18.892;2022-07-23T12:04:57;98198.94;;;35.05;28.60
61939;BME280;47897;50.322;18.892;2022-07-23T12:07:34;98201.66;;;34.74;27.32
61939;BME280;47897;50.322;18.892;2022-07-23T12:10:09;98198.02;;;34.45;28.12
61939;BME280;47897;50.322;18.892;2022-07-23T12:15:13;98195.26;;;33.85;28.81
61939;BME280;47897;50.322;18.892;2022-07-23T12:17:41;98189.58;;;33.55;29.12
61939;BME280;47897;50.322;18.892;2022-07-23T12:20:10;98186.80;;;33.58;29.92
61939;BME280;47897;50.322;18.892;2022-07-23T12:22:39;98185.26;;;33.55;30.14
61939;BME280;47897;50.322;18.892;2022-07-23T12:25:10;98179.52;;;33.42;30.29
61939;BME280;47897;50.322;18.892;2022-07-23T12:27:37;98171.90;;;33.35;30.88
61939;BME280;47897;50.322;18.892;2022-07-23T12:32:43;98167.31;;;33.22;30.01
61939;BME280;47897;50.322;18.892;2022-07-23T12:35:11;98160.38;;;32.97;30.59
61939;BME280;47897;50.322;18.892;2022-07-23T12:37:39;98152.22;;;32.74;30.84
61939;BME280;47897;50.322;18.892;2022-07-23T12:42:47;98150.45;;;32.32;33.23
61939;BME280;47897;50.322;18.892;2022-07-23T12:45:14;98150.08;;;32.09;33.14
61939;BME280;47897;50.322;18.892;2022-07-23T12:47:54;98148.95;;;31.90;34.40
61939;BME280;47897;50.322;18.892;2022-07-23T12:53:04;98138.27;;;31.47;34.51
61939;BME280;47897;50.322;18.892;2022-07-23T12:55:31;98140.98;;;31.39;35.50
61939;BME280;47897;50.322;18.892;2022-07-23T12:58:11;98145.06;;;31.23;35.66
61939;BME280;47897;50.322;18.892;2022-07-23T13:03:40;98148.53;;;30.90;37.31
61939;BME280;47897;50.322;18.892;2022-07-23T13:06:08;98154.39;;;30.90;36.46
61939;BME280;47897;50.322;18.892;2022-07-23T13:08:36;98152.15;;;30.86;37.02
61939;BME280;47897;50.322;18.892;2022-07-23T13:11:04;98148.65;;;30.83;38.04
61939;BME280;47897;50.322;18.892;2022-07-23T13:13:32;98143.73;;;30.76;37.97
61939;BME280;47897;50.322;18.892;2022-07-23T13:16:00;98143.96;;;30.70;38.15
61939;BME280;47897;50.322;18.892;2022-07-23T13:18:27;98140.45;;;30.70;38.81
61939;BME280;47897;50.322;18.892;2022-07-23T13:20:55;98136.05;;;30.70;37.79
61939;BME280;47897;50.322;18.892;2022-07-23T13:23:22;98133.66;;;30.65;37.61
61939;BME280;47897;50.322;18.892;2022-07-23T13:25:49;98130.48;;;30.66;37.74
61939;BME280;47897;50.322;18.892;2022-07-23T13:28:16;98126.77;;;30.68;37.52
61939;BME280;47897;50.322;18.892;2022-07-23T13:30:43;98125.16;;;30.71;38.03
61939;BME280;47897;50.322;18.892;2022-07-23T13:33:11;98127.45;;;30.77;37.77
61939;BME280;47897;50.322;18.892;2022-07-23T13:35:38;98124.20;;;30.76;37.33
61939;BME280;47897;50.322;18.892;2022-07-23T13:38:05;98122.89;;;30.77;37.33
61939;BME280;47897;50.322;18.892;2022-07-23T13:40:35;98126.57;;;30.76;37.91
61939;BME280;47897;50.322;18.892;2022-07-23T13:43:02;98129.48;;;30.74;38.79
61939;BME280;47897;50.322;18.892;2022-07-23T13:45:29;98128.88;;;30.70;39.16
61939;BME280;47897;50.322;18.892;2022-07-23T13:47:56;98127.76;;;30.63;39.10